sensor_id;sensor_type;location;lat;lon;timestamp;P1;durP1;ratioP1;P2;durP2;ratioP2
61358;SDS011;47228;46.762;23.598;2023-08-06T00:00:28;4.90;;;3.90;;
61358;SDS011;47228;46.762;23.598;2023-08-06T00:03:16;10.40;;;3.70;;
61358;SDS011;47228;46.762;23.598;2023-08-06T00:05:44;4.90;;;3.70;;
61358;SDS011;47228;46.762;23.598;2023-08-06T00:08:12;6.20;;;3.90;;
61358;SDS011;47228;46.762;23.598;2023-08-06T00:10:40;5.20;;;3.90;;
61358;SDS011;47228;46.762;23.598;2023-08-06T00:13:09;6.00;;;3.90;;
61358;SDS011;47228;46.762;23.598;2023-08-06T00:15:37;6.30;;;3.90;;
61358;SDS011;47228;46.762;23.598;2023-08-06T00:18:05;7.00;;;3.90;;
61358;SDS011;47228;46.762;23.598;2023-08-06T00:20:33;7.10;;;4.30;;
61358;SDS011;47228;46.762;23.598;2023-08-06T00:23:01;6.70;;;4.30;;
61358;SDS011;47228;46.762;23.598;2023-08-06T00:25:30;7.40;;;4.10;;
61358;SDS011;47228;46.762;23.598;2023-08-06T00:27:57;7.00;;;4.40;;
61358;SDS011;47228;46.762;23.598;2023-08-06T00:30:26;8.50;;;4.10;;
61358;SDS011;47228;46.762;23.598;2023-08-06T00:32:54;7.30;;;4.70;;
61358;SDS011;47228;46.762;23.598;2023-08-06T00:35:23;7.80;;;4.60;;
61358;SDS011;47228;46.762;23.598;2023-08-06T00:37:51;8.70;;;4.40;;
61358;SDS011;47228;46.762;23.598;2023-08-06T00:40:20;7.00;;;4.50;;
61358;SDS011;47228;46.762;23.598;2023-08-06T00:42:49;7.70;;;4.20;;
61358;SDS011;47228;46.762;23.598;2023-08-06T00:45:17;8.10;;;4.70;;
61358;SDS011;47228;46.762;23.598;2023-08-06T00:47:45;5.80;;;4.60;;
61358;SDS011;47228;46.762;23.598;2023-08-06T00:50:14;7.40;;;4.50;;
61358;SDS011;47228;46.762;23.598;2023-08-06T00:52:43;5.80;;;4.50;;
61358;SDS011;47228;46.762;23.598;2023-08-06T00:55:11;7.90;;;4.80;;
61358;SDS011;47228;46.762;23.598;2023-08-06T00:57:40;7.50;;;4.90;;
61358;SDS011;47228;46.762;23.598;2023-08-06T01:00:08;6.90;;;4.30;;
61358;SDS011;47228;46.762;23.598;2023-08-06T01:02:36;7.30;;;5.10;;
61358;SDS011;47228;46.762;23.598;2023-08-06T01:05:14;9.90;;;4.90;;
61358;SDS011;47228;46.762;23.598;2023-08-06T01:10:45;14.00;;;5.90;;
61358;SDS011;47228;46.762;23.598;2023-08-06T01:13:24;16.80;;;5.50;;
61358;SDS011;47228;46.762;23.598;2023-08-06T01:15:59;16.10;;;5.60;;
61358;SDS011;47228;46.762;23.598;2023-08-06T01:18:28;12.30;;;5.70;;
61358;SDS011;47228;46.762;23.598;2023-08-06T01:20:58;16.90;;;5.90;;
61358;SDS011;47228;46.762;23.598;2023-08-06T01:23:27;15.60;;;5.50;;
61358;SDS011;47228;46.762;23.598;2023-08-06T01:26:02;13.00;;;5.40;;
61358;SDS011;47228;46.762;23.598;2023-08-06T01:31:21;15.30;;;5.60;;
61358;SDS011;47228;46.762;23.598;2023-08-06T01:33:52;11.40;;;5.40;;
61358;SDS011;47228;46.762;23.598;2023-08-06T01:36:21;14.60;;;5.30;;
61358;SDS011;47228;46.762;23.598;2023-08-06T01:38:51;13.70;;;5.30;;
61358;SDS011;47228;46.762;23.598;2023-08-06T01:41:20;12.30;;;5.40;;
61358;SDS011;47228;46.762;23.598;2023-08-06T01:43:48;8.90;;;5.10;;
61358;SDS011;47228;46.762;23.598;2023-08-06T01:46:16;6.30;;;4.50;;
61358;SDS011;47228;46.762;23.598;2023-08-06T01:48:45;7.60;;;4.80;;
61358;SDS011;47228;46.762;23.598;2023-08-06T01:51:13;10.50;;;5.60;;
61358;SDS011;47228;46.762;23.598;2023-08-06T01:53:41;7.80;;;5.00;;
61358;SDS011;47228;46.762;23.598;2023-08-06T01:56:09;8.90;;;4.90;;
61358;SDS011;47228;46.762;23.598;2023-08-06T01:58:37;8.80;;;5.00;;
61358;SDS011;47228;46.762;23.598;2023-08-06T02:01:05;7.90;;;5.30;;
61358;SDS011;47228;46.762;23.598;2023-08-06T02:03:33;8.00;;;4.90;;
61358;SDS011;47228;46.762;23.598;2023-08-06T02:06:01;8.30;;;5.60;;
61358;SDS011;47228;46.762;23.598;2023-08-06T02:08:29;8.40;;;5.40;;
61358;SDS011;47228;46.762;23.598;2023-08-06T02:10:57;9.00;;;5.40;;
61358;SDS011;47228;46.762;23.598;2023-08-06T02:13:26;9.50;;;5.20;;
61358;SDS011;47228;46.762;23.598;2023-08-06T02:15:54;10.50;;;5.30;;
61358;SDS011;47228;46.762;23.598;2023-08-06T02:18:22;7.50;;;5.10;;
61358;SDS011;47228;46.762;23.598;2023-08-06T02:20:56;8.40;;;5.50;;
61358;SDS011;47228;46.762;23.598;2023-08-06T02:23:25;7.80;;;5.60;;
61358;SDS011;47228;46.762;23.598;2023-08-06T02:26:00;10.00;;;5.40;;
61358;SDS011;47228;46.762;23.598;2023-08-06T02:28:29;8.40;;;5.00;;
61358;SDS011;47228;46.762;23.598;2023-08-06T02:30:57;11.20;;;5.40;;
61358;SDS011;47228;46.762;23.598;2023-08-06T02:33:25;9.50;;;5.40;;
61358;SDS011;47228;46.762;23.598;2023-08-06T02:36:03;8.50;;;5.50;;
61358;SDS011;47228;46.762;23.598;2023-08-06T02:38:32;7.50;;;5.40;;
61358;SDS011;47228;46.762;23.598;2023-08-06T02:41:04;7.00;;;5.20;;
61358;SDS011;47228;46.762;23.598;2023-08-06T02:43:32;10.90;;;5.60;;
61358;SDS011;47228;46.762;23.598;2023-08-06T02:46:00;9.60;;;5.90;;
61358;SDS011;47228;46.762;23.598;2023-08-06T02:48:29;10.20;;;5.60;;
61358;SDS011;47228;46.762;23.598;2023-08-06T02:50:57;7.70;;;5.20;;
61358;SDS011;47228;46.762;23.598;2023-08-06T02:53:29;8.10;;;6.00;;
61358;SDS011;47228;46.762;23.598;2023-08-06T02:55:57;9.30;;;5.50;;
61358;SDS011;47228;46.762;23.598;2023-08-06T02:58:26;6.90;;;5.30;;
61358;SDS011;47228;46.762;23.598;2023-08-06T03:01:01;8.20;;;5.90;;
61358;SDS011;47228;46.762;23.598;2023-08-06T03:03:31;9.10;;;6.10;;
61358;SDS011;47228;46.762;23.598;2023-08-06T03:05:59;7.10;;;5.30;;
61358;SDS011;47228;46.762;23.598;2023-08-06T03:08:28;8.90;;;5.60;;
61358;SDS011;47228;46.762;23.598;2023-08-06T03:10:56;8.50;;;5.00;;
61358;SDS011;47228;46.762;23.598;2023-08-06T03:13:24;8.50;;;6.00;;
61358;SDS011;47228;46.762;23.598;2023-08-06T03:15:53;11.50;;;6.20;;
61358;SDS011;47228;46.762;23.598;2023-08-06T03:18:25;14.50;;;5.70;;
61358;SDS011;47228;46.762;23.598;2023-08-06T03:20:54;8.70;;;6.20;;
61358;SDS011;47228;46.762;23.598;2023-08-06T03:23:22;10.70;;;6.40;;
61358;SDS011;47228;46.762;23.598;2023-08-06T03:25:51;8.80;;;6.20;;
61358;SDS011;47228;46.762;23.598;2023-08-06T03:28:19;10.60;;;6.50;;
61358;SDS011;47228;46.762;23.598;2023-08-06T03:30:47;10.70;;;6.80;;
61358;SDS011;47228;46.762;23.598;2023-08-06T03:33:15;9.40;;;6.80;;
61358;SDS011;47228;46.762;23.598;2023-08-06T03:35:43;9.60;;;7.20;;
61358;SDS011;47228;46.762;23.598;2023-08-06T03:38:11;10.40;;;7.40;;
61358;SDS011;47228;46.762;23.598;2023-08-06T03:40:39;10.90;;;7.00;;
61358;SDS011;47228;46.762;23.598;2023-08-06T03:43:07;8.70;;;6.60;;
61358;SDS011;47228;46.762;23.598;2023-08-06T03:45:35;13.70;;;7.10;;
61358;SDS011;47228;46.762;23.598;2023-08-06T03:48:03;10.60;;;7.20;;
61358;SDS011;47228;46.762;23.598;2023-08-06T03:50:31;11.40;;;7.90;;
61358;SDS011;47228;46.762;23.598;2023-08-06T03:52:59;9.90;;;7.60;;
61358;SDS011;47228;46.762;23.598;2023-08-06T03:55:28;12.40;;;7.40;;
61358;SDS011;47228;46.762;23.598;2023-08-06T03:57:56;11.50;;;7.30;;
61358;SDS011;47228;46.762;23.598;2023-08-06T04:00:23;10.90;;;7.10;;
61358;SDS011;47228;46.762;23.598;2023-08-06T04:02:51;13.20;;;7.50;;
61358;SDS011;47228;46.762;23.598;2023-08-06T04:05:20;9.90;;;7.90;;
61358;SDS011;47228;46.762;23.598;2023-08-06T04:07:48;11.10;;;8.10;;
61358;SDS011;47228;46.762;23.598;2023-08-06T04:10:16;13.90;;;8.40;;
61358;SDS011;47228;46.762;23.598;2023-08-06T04:12:44;12.70;;;8.80;;
61358;SDS011;47228;46.762;23.598;2023-08-06T04:15:12;12.60;;;8.40;;
61358;SDS011;47228;46.762;23.598;2023-08-06T04:17:40;11.80;;;7.70;;
61358;SDS011;47228;46.762;23.598;2023-08-06T04:20:08;12.40;;;8.10;;
61358;SDS011;47228;46.762;23.598;2023-08-06T04:22:37;10.30;;;8.40;;
61358;SDS011;47228;46.762;23.598;2023-08-06T04:25:05;11.20;;;7.80;;
61358;SDS011;47228;46.762;23.598;2023-08-06T04:27:33;10.20;;;7.80;;
61358;SDS011;47228;46.762;23.598;2023-08-06T04:30:01;13.80;;;7.90;;
61358;SDS011;47228;46.762;23.598;2023-08-06T04:32:30;10.90;;;7.60;;
61358;SDS011;47228;46.762;23.598;2023-08-06T04:34:58;9.30;;;7.30;;
61358;SDS011;47228;46.762;23.598;2023-08-06T04:37:26;9.80;;;7.70;;
61358;SDS011;47228;46.762;23.598;2023-08-06T04:39:54;14.00;;;8.40;;
61358;SDS011;47228;46.762;23.598;2023-08-06T04:42:21;10.10;;;7.50;;
61358;SDS011;47228;46.762;23.598;2023-08-06T04:44:50;10.90;;;7.80;;
61358;SDS011;47228;46.762;23.598;2023-08-06T04:47:18;9.90;;;7.30;;
61358;SDS011;47228;46.762;23.598;2023-08-06T04:49:46;11.90;;;8.00;;
61358;SDS011;47228;46.762;23.598;2023-08-06T04:52:14;11.30;;;7.90;;
61358;SDS011;47228;46.762;23.598;2023-08-06T04:54:43;11.80;;;7.40;;
61358;SDS011;47228;46.762;23.598;2023-08-06T04:57:11;13.20;;;7.70;;
61358;SDS011;47228;46.762;23.598;2023-08-06T04:59:39;8.70;;;6.80;;
61358;SDS011;47228;46.762;23.598;2023-08-06T05:02:07;10.20;;;7.30;;
61358;SDS011;47228;46.762;23.598;2023-08-06T05:04:35;10.60;;;7.20;;
61358;SDS011;47228;46.762;23.598;2023-08-06T05:07:04;8.10;;;6.90;;
61358;SDS011;47228;46.762;23.598;2023-08-06T05:09:33;10.10;;;7.00;;
61358;SDS011;47228;46.762;23.598;2023-08-06T05:12:03;8.90;;;7.00;;
61358;SDS011;47228;46.762;23.598;2023-08-06T05:14:32;11.50;;;7.60;;
61358;SDS011;47228;46.762;23.598;2023-08-06T05:17:00;12.60;;;7.50;;
61358;SDS011;47228;46.762;23.598;2023-08-06T05:19:31;9.60;;;7.40;;
61358;SDS011;47228;46.762;23.598;2023-08-06T05:21:59;9.80;;;7.70;;
61358;SDS011;47228;46.762;23.598;2023-08-06T05:24:27;12.20;;;7.90;;
61358;SDS011;47228;46.762;23.598;2023-08-06T05:26:54;13.50;;;8.10;;
61358;SDS011;47228;46.762;23.598;2023-08-06T05:29:23;14.90;;;8.60;;
61358;SDS011;47228;46.762;23.598;2023-08-06T05:31:50;13.30;;;8.30;;
61358;SDS011;47228;46.762;23.598;2023-08-06T05:34:19;11.30;;;8.20;;
61358;SDS011;47228;46.762;23.598;2023-08-06T05:36:47;11.10;;;8.80;;
61358;SDS011;47228;46.762;23.598;2023-08-06T05:39:15;12.40;;;8.50;;
61358;SDS011;47228;46.762;23.598;2023-08-06T05:41:43;11.60;;;8.80;;
61358;SDS011;47228;46.762;23.598;2023-08-06T05:44:11;11.70;;;8.50;;
61358;SDS011;47228;46.762;23.598;2023-08-06T05:46:39;10.70;;;7.60;;
61358;SDS011;47228;46.762;23.598;2023-08-06T05:49:07;20.60;;;10.00;;
61358;SDS011;47228;46.762;23.598;2023-08-06T05:51:35;14.60;;;9.60;;
61358;SDS011;47228;46.762;23.598;2023-08-06T05:54:03;16.80;;;9.70;;
61358;SDS011;47228;46.762;23.598;2023-08-06T05:56:31;15.30;;;9.90;;
61358;SDS011;47228;46.762;23.598;2023-08-06T05:58:58;15.30;;;9.00;;
61358;SDS011;47228;46.762;23.598;2023-08-06T06:01:26;14.20;;;9.40;;
61358;SDS011;47228;46.762;23.598;2023-08-06T06:03:54;12.50;;;10.10;;
61358;SDS011;47228;46.762;23.598;2023-08-06T06:06:23;12.00;;;9.30;;
61358;SDS011;47228;46.762;23.598;2023-08-06T06:08:50;12.10;;;9.70;;
61358;SDS011;47228;46.762;23.598;2023-08-06T06:11:18;13.20;;;10.00;;
61358;SDS011;47228;46.762;23.598;2023-08-06T06:13:50;13.80;;;10.00;;
61358;SDS011;47228;46.762;23.598;2023-08-06T06:16:19;13.20;;;10.40;;
61358;SDS011;47228;46.762;23.598;2023-08-06T06:18:47;13.60;;;10.60;;
61358;SDS011;47228;46.762;23.598;2023-08-06T06:21:14;14.00;;;10.50;;
61358;SDS011;47228;46.762;23.598;2023-08-06T06:23:42;13.20;;;9.50;;
61358;SDS011;47228;46.762;23.598;2023-08-06T06:26:10;12.40;;;9.60;;
61358;SDS011;47228;46.762;23.598;2023-08-06T06:28:38;13.10;;;8.70;;
61358;SDS011;47228;46.762;23.598;2023-08-06T06:31:06;10.60;;;8.70;;
61358;SDS011;47228;46.762;23.598;2023-08-06T06:33:34;12.90;;;9.60;;
61358;SDS011;47228;46.762;23.598;2023-08-06T06:36:02;11.10;;;8.60;;
61358;SDS011;47228;46.762;23.598;2023-08-06T06:38:31;12.10;;;9.30;;
61358;SDS011;47228;46.762;23.598;2023-08-06T06:40:59;11.90;;;8.20;;
61358;SDS011;47228;46.762;23.598;2023-08-06T06:43:27;10.80;;;8.20;;
61358;SDS011;47228;46.762;23.598;2023-08-06T06:45:58;13.70;;;9.80;;
61358;SDS011;47228;46.762;23.598;2023-08-06T06:48:29;11.50;;;9.00;;
61358;SDS011;47228;46.762;23.598;2023-08-06T06:50:59;12.70;;;8.90;;
61358;SDS011;47228;46.762;23.598;2023-08-06T06:53:27;11.30;;;8.30;;
61358;SDS011;47228;46.762;23.598;2023-08-06T06:55:56;11.60;;;8.20;;
61358;SDS011;47228;46.762;23.598;2023-08-06T06:58:29;12.60;;;8.60;;
61358;SDS011;47228;46.762;23.598;2023-08-06T07:00:57;10.50;;;8.00;;
61358;SDS011;47228;46.762;23.598;2023-08-06T07:03:26;10.40;;;8.40;;
61358;SDS011;47228;46.762;23.598;2023-08-06T07:05:57;10.30;;;7.90;;
61358;SDS011;47228;46.762;23.598;2023-08-06T07:08:26;11.80;;;7.40;;
61358;SDS011;47228;46.762;23.598;2023-08-06T07:11:02;11.00;;;7.50;;
61358;SDS011;47228;46.762;23.598;2023-08-06T07:13:31;9.80;;;7.80;;
61358;SDS011;47228;46.762;23.598;2023-08-06T07:16:00;12.00;;;8.50;;
61358;SDS011;47228;46.762;23.598;2023-08-06T07:18:28;11.30;;;8.00;;
61358;SDS011;47228;46.762;23.598;2023-08-06T07:20:56;13.20;;;8.70;;
61358;SDS011;47228;46.762;23.598;2023-08-06T07:23:25;10.20;;;8.40;;
61358;SDS011;47228;46.762;23.598;2023-08-06T07:25:53;18.50;;;8.90;;
61358;SDS011;47228;46.762;23.598;2023-08-06T07:28:21;11.70;;;8.90;;
61358;SDS011;47228;46.762;23.598;2023-08-06T07:30:50;10.90;;;8.10;;
61358;SDS011;47228;46.762;23.598;2023-08-06T07:33:18;14.60;;;8.60;;
61358;SDS011;47228;46.762;23.598;2023-08-06T07:35:46;13.80;;;9.70;;
61358;SDS011;47228;46.762;23.598;2023-08-06T07:38:14;13.90;;;8.60;;
61358;SDS011;47228;46.762;23.598;2023-08-06T07:40:42;12.50;;;8.40;;
61358;SDS011;47228;46.762;23.598;2023-08-06T07:43:10;9.90;;;8.10;;
61358;SDS011;47228;46.762;23.598;2023-08-06T07:45:39;11.10;;;8.20;;
61358;SDS011;47228;46.762;23.598;2023-08-06T07:48:07;10.70;;;8.40;;
61358;SDS011;47228;46.762;23.598;2023-08-06T07:50:35;12.40;;;9.40;;
61358;SDS011;47228;46.762;23.598;2023-08-06T07:53:03;12.30;;;10.00;;
61358;SDS011;47228;46.762;23.598;2023-08-06T07:55:31;9.30;;;8.10;;
61358;SDS011;47228;46.762;23.598;2023-08-06T07:57:59;13.60;;;8.70;;
61358;SDS011;47228;46.762;23.598;2023-08-06T08:00:27;15.40;;;8.50;;
61358;SDS011;47228;46.762;23.598;2023-08-06T08:02:55;13.40;;;8.20;;
61358;SDS011;47228;46.762;23.598;2023-08-06T08:05:23;11.70;;;8.10;;
61358;SDS011;47228;46.762;23.598;2023-08-06T08:07:51;10.70;;;8.40;;
61358;SDS011;47228;46.762;23.598;2023-08-06T08:10:19;11.60;;;8.30;;
61358;SDS011;47228;46.762;23.598;2023-08-06T08:12:47;9.60;;;8.60;;
61358;SDS011;47228;46.762;23.598;2023-08-06T08:15:15;11.40;;;8.80;;
61358;SDS011;47228;46.762;23.598;2023-08-06T08:17:43;10.80;;;8.90;;
61358;SDS011;47228;46.762;23.598;2023-08-06T08:20:11;11.60;;;8.30;;
61358;SDS011;47228;46.762;23.598;2023-08-06T08:22:39;9.60;;;8.30;;
61358;SDS011;47228;46.762;23.598;2023-08-06T08:25:07;10.30;;;7.60;;
61358;SDS011;47228;46.762;23.598;2023-08-06T08:27:35;9.20;;;7.70;;
61358;SDS011;47228;46.762;23.598;2023-08-06T08:30:04;6.40;;;5.10;;
61358;SDS011;47228;46.762;23.598;2023-08-06T08:32:32;6.70;;;5.00;;
61358;SDS011;47228;46.762;23.598;2023-08-06T08:35:00;7.60;;;4.30;;
61358;SDS011;47228;46.762;23.598;2023-08-06T08:37:28;6.40;;;3.80;;
61358;SDS011;47228;46.762;23.598;2023-08-06T08:39:56;4.90;;;3.70;;
61358;SDS011;47228;46.762;23.598;2023-08-06T08:42:24;5.80;;;3.90;;
61358;SDS011;47228;46.762;23.598;2023-08-06T08:44:52;5.80;;;3.40;;
61358;SDS011;47228;46.762;23.598;2023-08-06T08:47:22;7.60;;;3.10;;
61358;SDS011;47228;46.762;23.598;2023-08-06T08:49:52;4.60;;;3.10;;
61358;SDS011;47228;46.762;23.598;2023-08-06T08:52:23;3.70;;;2.80;;
61358;SDS011;47228;46.762;23.598;2023-08-06T08:54:53;4.80;;;2.90;;
61358;SDS011;47228;46.762;23.598;2023-08-06T08:57:21;6.00;;;3.20;;
61358;SDS011;47228;46.762;23.598;2023-08-06T08:59:50;5.10;;;3.40;;
61358;SDS011;47228;46.762;23.598;2023-08-06T09:02:18;4.00;;;2.80;;
61358;SDS011;47228;46.762;23.598;2023-08-06T09:04:49;3.10;;;2.60;;
61358;SDS011;47228;46.762;23.598;2023-08-06T09:07:18;4.40;;;3.10;;
61358;SDS011;47228;46.762;23.598;2023-08-06T09:09:48;3.60;;;2.90;;
61358;SDS011;47228;46.762;23.598;2023-08-06T09:12:17;5.50;;;3.00;;
61358;SDS011;47228;46.762;23.598;2023-08-06T09:14:45;3.40;;;2.70;;
61358;SDS011;47228;46.762;23.598;2023-08-06T09:17:13;4.20;;;3.00;;
61358;SDS011;47228;46.762;23.598;2023-08-06T09:19:42;7.50;;;3.60;;
61358;SDS011;47228;46.762;23.598;2023-08-06T09:22:15;3.00;;;2.70;;
61358;SDS011;47228;46.762;23.598;2023-08-06T09:24:44;5.90;;;2.90;;
61358;SDS011;47228;46.762;23.598;2023-08-06T09:27:12;6.90;;;3.80;;
61358;SDS011;47228;46.762;23.598;2023-08-06T09:29:44;7.00;;;4.10;;
61358;SDS011;47228;46.762;23.598;2023-08-06T09:32:13;5.40;;;3.20;;
61358;SDS011;47228;46.762;23.598;2023-08-06T09:34:41;5.00;;;3.40;;
61358;SDS011;47228;46.762;23.598;2023-08-06T09:37:10;4.20;;;3.20;;
61358;SDS011;47228;46.762;23.598;2023-08-06T09:39:39;4.70;;;3.20;;
61358;SDS011;47228;46.762;23.598;2023-08-06T09:42:10;3.40;;;3.00;;
61358;SDS011;47228;46.762;23.598;2023-08-06T09:44:42;7.10;;;3.10;;
61358;SDS011;47228;46.762;23.598;2023-08-06T09:47:13;3.90;;;3.10;;
61358;SDS011;47228;46.762;23.598;2023-08-06T09:49:45;6.10;;;3.30;;
61358;SDS011;47228;46.762;23.598;2023-08-06T09:52:13;4.40;;;2.80;;
61358;SDS011;47228;46.762;23.598;2023-08-06T09:54:43;3.30;;;2.60;;
61358;SDS011;47228;46.762;23.598;2023-08-06T09:57:14;4.00;;;2.90;;
61358;SDS011;47228;46.762;23.598;2023-08-06T09:59:43;4.20;;;2.80;;
61358;SDS011;47228;46.762;23.598;2023-08-06T10:02:17;5.70;;;2.90;;
61358;SDS011;47228;46.762;23.598;2023-08-06T10:04:50;4.20;;;3.00;;
61358;SDS011;47228;46.762;23.598;2023-08-06T10:07:24;3.70;;;2.40;;
61358;SDS011;47228;46.762;23.598;2023-08-06T10:09:52;3.00;;;2.20;;
61358;SDS011;47228;46.762;23.598;2023-08-06T10:12:21;2.40;;;2.00;;
61358;SDS011;47228;46.762;23.598;2023-08-06T10:15:14;2.70;;;2.30;;
61358;SDS011;47228;46.762;23.598;2023-08-06T10:17:45;3.20;;;2.30;;
61358;SDS011;47228;46.762;23.598;2023-08-06T10:20:18;3.00;;;2.20;;
61358;SDS011;47228;46.762;23.598;2023-08-06T10:22:59;2.80;;;2.30;;
61358;SDS011;47228;46.762;23.598;2023-08-06T10:25:32;3.30;;;2.20;;
61358;SDS011;47228;46.762;23.598;2023-08-06T10:30:46;2.00;;;1.80;;
61358;SDS011;47228;46.762;23.598;2023-08-06T10:33:15;4.70;;;2.10;;
61358;SDS011;47228;46.762;23.598;2023-08-06T10:35:48;2.50;;;2.20;;
61358;SDS011;47228;46.762;23.598;2023-08-06T10:38:21;3.90;;;2.60;;
61358;SDS011;47228;46.762;23.598;2023-08-06T10:43:25;3.10;;;2.30;;
61358;SDS011;47228;46.762;23.598;2023-08-06T10:45:56;4.10;;;2.30;;
61358;SDS011;47228;46.762;23.598;2023-08-06T10:48:28;4.10;;;2.30;;
61358;SDS011;47228;46.762;23.598;2023-08-06T10:51:00;2.30;;;1.90;;
61358;SDS011;47228;46.762;23.598;2023-08-06T10:53:29;2.40;;;2.20;;
61358;SDS011;47228;46.762;23.598;2023-08-06T10:56:01;2.50;;;2.30;;
61358;SDS011;47228;46.762;23.598;2023-08-06T10:58:32;2.30;;;2.10;;
61358;SDS011;47228;46.762;23.598;2023-08-06T11:01:01;4.10;;;2.20;;
61358;SDS011;47228;46.762;23.598;2023-08-06T11:03:29;3.40;;;2.30;;
61358;SDS011;47228;46.762;23.598;2023-08-06T11:06:00;3.10;;;2.30;;
61358;SDS011;47228;46.762;23.598;2023-08-06T11:08:32;4.90;;;2.20;;
61358;SDS011;47228;46.762;23.598;2023-08-06T11:11:08;3.40;;;2.20;;
61358;SDS011;47228;46.762;23.598;2023-08-06T11:13:43;3.50;;;2.10;;
61358;SDS011;47228;46.762;23.598;2023-08-06T11:16:16;3.20;;;1.80;;
61358;SDS011;47228;46.762;23.598;2023-08-06T11:18:46;2.10;;;1.70;;
61358;SDS011;47228;46.762;23.598;2023-08-06T11:21:18;3.40;;;1.70;;
61358;SDS011;47228;46.762;23.598;2023-08-06T11:23:47;2.50;;;1.40;;
61358;SDS011;47228;46.762;23.598;2023-08-06T11:26:19;3.50;;;1.70;;
61358;SDS011;47228;46.762;23.598;2023-08-06T11:28:48;1.60;;;1.50;;
61358;SDS011;47228;46.762;23.598;2023-08-06T11:31:20;1.90;;;1.60;;
61358;SDS011;47228;46.762;23.598;2023-08-06T11:33:53;3.00;;;1.70;;
61358;SDS011;47228;46.762;23.598;2023-08-06T11:36:56;1.70;;;1.60;;
61358;SDS011;47228;46.762;23.598;2023-08-06T11:39:16;1.60;;;1.40;;
61358;SDS011;47228;46.762;23.598;2023-08-06T11:41:44;2.40;;;1.20;;
61358;SDS011;47228;46.762;23.598;2023-08-06T11:44:13;1.40;;;1.20;;
61358;SDS011;47228;46.762;23.598;2023-08-06T11:46:53;2.50;;;1.30;;
61358;SDS011;47228;46.762;23.598;2023-08-06T11:52:15;2.70;;;1.10;;
61358;SDS011;47228;46.762;23.598;2023-08-06T11:54:51;2.10;;;1.70;;
61358;SDS011;47228;46.762;23.598;2023-08-06T11:57:30;2.00;;;1.60;;
61358;SDS011;47228;46.762;23.598;2023-08-06T12:00:06;2.40;;;1.80;;
61358;SDS011;47228;46.762;23.598;2023-08-06T12:02:40;2.50;;;2.00;;
61358;SDS011;47228;46.762;23.598;2023-08-06T12:07:47;5.90;;;2.60;;
61358;SDS011;47228;46.762;23.598;2023-08-06T12:10:18;2.20;;;1.90;;
61358;SDS011;47228;46.762;23.598;2023-08-06T12:12:49;4.40;;;1.90;;
61358;SDS011;47228;46.762;23.598;2023-08-06T12:15:17;2.20;;;2.00;;
61358;SDS011;47228;46.762;23.598;2023-08-06T12:17:46;1.90;;;1.60;;
61358;SDS011;47228;46.762;23.598;2023-08-06T12:20:15;3.00;;;1.90;;
61358;SDS011;47228;46.762;23.598;2023-08-06T12:22:44;2.80;;;1.80;;
61358;SDS011;47228;46.762;23.598;2023-08-06T12:25:13;3.70;;;2.30;;
61358;SDS011;47228;46.762;23.598;2023-08-06T12:27:42;2.90;;;1.90;;
61358;SDS011;47228;46.762;23.598;2023-08-06T12:30:12;1.90;;;1.80;;
61358;SDS011;47228;46.762;23.598;2023-08-06T12:32:41;2.20;;;1.80;;
61358;SDS011;47228;46.762;23.598;2023-08-06T12:35:09;4.20;;;2.60;;
61358;SDS011;47228;46.762;23.598;2023-08-06T12:37:37;3.00;;;2.20;;
61358;SDS011;47228;46.762;23.598;2023-08-06T12:40:08;3.20;;;2.10;;
61358;SDS011;47228;46.762;23.598;2023-08-06T12:42:56;1.90;;;1.70;;
61358;SDS011;47228;46.762;23.598;2023-08-06T12:45:25;2.70;;;2.00;;
61358;SDS011;47228;46.762;23.598;2023-08-06T12:47:53;3.50;;;2.00;;
61358;SDS011;47228;46.762;23.598;2023-08-06T12:50:21;2.30;;;2.00;;
61358;SDS011;47228;46.762;23.598;2023-08-06T12:52:49;2.70;;;1.80;;
61358;SDS011;47228;46.762;23.598;2023-08-06T12:55:17;3.60;;;1.90;;
61358;SDS011;47228;46.762;23.598;2023-08-06T12:57:45;2.20;;;1.80;;
61358;SDS011;47228;46.762;23.598;2023-08-06T13:00:25;2.40;;;2.00;;
61358;SDS011;47228;46.762;23.598;2023-08-06T13:02:55;1.80;;;1.70;;
61358;SDS011;47228;46.762;23.598;2023-08-06T13:05:24;2.80;;;2.00;;
61358;SDS011;47228;46.762;23.598;2023-08-06T13:07:52;2.60;;;1.70;;
61358;SDS011;47228;46.762;23.598;2023-08-06T13:10:20;2.90;;;1.70;;
61358;SDS011;47228;46.762;23.598;2023-08-06T13:12:49;2.00;;;1.70;;
61358;SDS011;47228;46.762;23.598;2023-08-06T13:15:17;3.40;;;1.90;;
61358;SDS011;47228;46.762;23.598;2023-08-06T13:17:48;3.00;;;2.10;;
61358;SDS011;47228;46.762;23.598;2023-08-06T13:20:16;2.20;;;1.80;;
61358;SDS011;47228;46.762;23.598;2023-08-06T13:22:49;2.40;;;1.90;;
61358;SDS011;47228;46.762;23.598;2023-08-06T13:25:20;2.90;;;1.90;;
61358;SDS011;47228;46.762;23.598;2023-08-06T13:27:48;2.50;;;1.90;;
61358;SDS011;47228;46.762;23.598;2023-08-06T13:30:16;3.00;;;2.10;;
61358;SDS011;47228;46.762;23.598;2023-08-06T13:32:46;3.10;;;2.00;;
61358;SDS011;47228;46.762;23.598;2023-08-06T13:35:14;7.80;;;5.00;;
61358;SDS011;47228;46.762;23.598;2023-08-06T13:37:42;4.90;;;3.20;;
61358;SDS011;47228;46.762;23.598;2023-08-06T13:40:10;7.20;;;2.50;;
61358;SDS011;47228;46.762;23.598;2023-08-06T13:42:39;3.80;;;2.10;;
61358;SDS011;47228;46.762;23.598;2023-08-06T13:45:07;2.40;;;2.00;;
61358;SDS011;47228;46.762;23.598;2023-08-06T13:47:35;4.00;;;2.40;;
61358;SDS011;47228;46.762;23.598;2023-08-06T13:50:04;6.50;;;2.50;;
61358;SDS011;47228;46.762;23.598;2023-08-06T13:52:32;4.20;;;2.10;;
61358;SDS011;47228;46.762;23.598;2023-08-06T13:55:00;5.60;;;2.10;;
61358;SDS011;47228;46.762;23.598;2023-08-06T13:57:28;3.70;;;2.10;;
61358;SDS011;47228;46.762;23.598;2023-08-06T13:59:56;3.90;;;2.40;;
61358;SDS011;47228;46.762;23.598;2023-08-06T14:02:24;3.80;;;2.30;;
61358;SDS011;47228;46.762;23.598;2023-08-06T14:04:53;3.90;;;2.30;;
61358;SDS011;47228;46.762;23.598;2023-08-06T14:07:21;4.00;;;2.50;;
61358;SDS011;47228;46.762;23.598;2023-08-06T14:09:49;5.60;;;2.60;;
61358;SDS011;47228;46.762;23.598;2023-08-06T14:12:17;4.40;;;2.60;;
61358;SDS011;47228;46.762;23.598;2023-08-06T14:14:45;2.60;;;2.10;;
61358;SDS011;47228;46.762;23.598;2023-08-06T14:17:13;3.50;;;1.60;;
61358;SDS011;47228;46.762;23.598;2023-08-06T14:19:41;3.00;;;1.70;;
61358;SDS011;47228;46.762;23.598;2023-08-06T14:22:09;1.70;;;1.30;;
61358;SDS011;47228;46.762;23.598;2023-08-06T14:24:37;2.10;;;1.40;;
61358;SDS011;47228;46.762;23.598;2023-08-06T14:27:05;1.40;;;1.30;;
61358;SDS011;47228;46.762;23.598;2023-08-06T14:29:33;1.80;;;1.40;;
61358;SDS011;47228;46.762;23.598;2023-08-06T14:32:01;1.60;;;1.20;;
61358;SDS011;47228;46.762;23.598;2023-08-06T14:34:29;3.20;;;1.50;;
61358;SDS011;47228;46.762;23.598;2023-08-06T14:36:58;1.60;;;1.30;;
61358;SDS011;47228;46.762;23.598;2023-08-06T14:39:26;3.20;;;2.00;;
61358;SDS011;47228;46.762;23.598;2023-08-06T14:41:54;1.90;;;1.50;;
61358;SDS011;47228;46.762;23.598;2023-08-06T14:44:22;4.10;;;1.60;;
61358;SDS011;47228;46.762;23.598;2023-08-06T14:46:50;2.90;;;1.60;;
61358;SDS011;47228;46.762;23.598;2023-08-06T14:49:18;3.30;;;1.70;;
61358;SDS011;47228;46.762;23.598;2023-08-06T14:51:46;4.90;;;1.70;;
61358;SDS011;47228;46.762;23.598;2023-08-06T14:54:14;3.20;;;1.60;;
61358;SDS011;47228;46.762;23.598;2023-08-06T14:56:42;4.10;;;1.70;;